sensor_id;sensor_type;location;lat;lon;timestamp;temperature;humidity
13336;DHT22;6737;51.480;11.962;2022-10-16T00:00:35;15.00;99.90
13336;DHT22;6737;51.480;11.962;2022-10-16T00:03:02;15.00;99.90
13336;DHT22;6737;51.480;11.962;2022-10-16T00:05:28;15.00;99.90
13336;DHT22;6737;51.480;11.962;2022-10-16T00:07:54;15.00;99.90
13336;DHT22;6737;51.480;11.962;2022-10-16T00:10:20;15.00;99.90
13336;DHT22;6737;51.480;11.962;2022-10-16T00:12:46;15.10;99.90
13336;DHT22;6737;51.480;11.962;2022-10-16T00:15:12;15.10;99.90
13336;DHT22;6737;51.480;11.962;2022-10-16T00:17:38;15.10;99.90
13336;DHT22;6737;51.480;11.962;2022-10-16T00:20:04;15.10;99.90
13336;DHT22;6737;51.480;11.962;2022-10-16T00:22:31;15.20;99.90
13336;DHT22;6737;51.480;11.962;2022-10-16T00:24:56;15.10;99.90
13336;DHT22;6737;51.480;11.962;2022-10-16T00:27:22;15.10;99.90
13336;DHT22;6737;51.480;11.962;2022-10-16T00:29:51;15.20;99.90
13336;DHT22;6737;51.480;11.962;2022-10-16T00:32:20;15.20;99.90
13336;DHT22;6737;51.480;11.962;2022-10-16T00:34:46;15.20;99.90
13336;DHT22;6737;51.480;11.962;2022-10-16T00:37:12;15.20;99.90
13336;DHT22;6737;51.480;11.962;2022-10-16T00:39:38;15.20;99.90
13336;DHT22;6737;51.480;11.962;2022-10-16T00:42:04;15.10;99.90
13336;DHT22;6737;51.480;11.962;2022-10-16T00:44:49;15.10;99.90
13336;DHT22;6737;51.480;11.962;2022-10-16T00:47:26;15.10;99.90
13336;DHT22;6737;51.480;11.962;2022-10-16T00:50:41;15.10;99.90
13336;DHT22;6737;51.480;11.962;2022-10-16T00:52:45;15.00;99.90
13336;DHT22;6737;51.480;11.962;2022-10-16T00:55:12;15.00;99.90
13336;DHT22;6737;51.480;11.962;2022-10-16T00:57:38;15.00;99.90
13336;DHT22;6737;51.480;11.962;2022-10-16T01:00:08;15.00;99.90
13336;DHT22;6737;51.480;11.962;2022-10-16T01:02:34;15.00;99.90
13336;DHT22;6737;51.480;11.962;2022-10-16T01:05:00;15.00;99.90
13336;DHT22;6737;51.480;11.962;2022-10-16T01:15:36;14.90;99.90
13336;DHT22;6737;51.480;11.962;2022-10-16T01:23:43;14.80;99.90
13336;DHT22;6737;51.480;11.962;2022-10-16T01:29:09;14.80;99.90
13336;DHT22;6737;51.480;11.962;2022-10-16T01:31:40;14.80;99.90
13336;DHT22;6737;51.480;11.962;2022-10-16T01:34:15;14.80;99.90
13336;DHT22;6737;51.480;11.962;2022-10-16T01:36:53;14.70;99.90
13336;DHT22;6737;51.480;11.962;2022-10-16T01:39:24;14.70;99.90
13336;DHT22;6737;51.480;11.962;2022-10-16T01:42:36;14.70;99.90
13336;DHT22;6737;51.480;11.962;2022-10-16T01:45:05;14.70;99.90
13336;DHT22;6737;51.480;11.962;2022-10-16T01:47:35;14.60;99.90
13336;DHT22;6737;51.480;11.962;2022-10-16T01:50:04;14.60;99.90
13336;DHT22;6737;51.480;11.962;2022-10-16T01:52:33;14.60;99.90
13336;DHT22;6737;51.480;11.962;2022-10-16T01:55:03;14.60;99.90
13336;DHT22;6737;51.480;11.962;2022-10-16T01:57:31;14.60;99.90
13336;DHT22;6737;51.480;11.962;2022-10-16T02:00:05;14.50;99.90
13336;DHT22;6737;51.480;11.962;2022-10-16T02:02:34;14.50;99.90
13336;DHT22;6737;51.480;11.962;2022-10-16T02:07:41;14.40;99.90
13336;DHT22;6737;51.480;11.962;2022-10-16T02:10:08;14.40;99.90
13336;DHT22;6737;51.480;11.962;2022-10-16T02:12:37;14.30;99.90
13336;DHT22;6737;51.480;11.962;2022-10-16T02:15:06;14.40;99.90
13336;DHT22;6737;51.480;11.962;2022-10-16T02:17:32;14.40;99.90
13336;DHT22;6737;51.480;11.962;2022-10-16T02:19:59;14.40;99.90
13336;DHT22;6737;51.480;11.962;2022-10-16T02:22:34;14.40;99.90
13336;DHT22;6737;51.480;11.962;2022-10-16T02:30:27;14.40;99.90
13336;DHT22;6737;51.480;11.962;2022-10-16T02:32:56;14.40;99.90
13336;DHT22;6737;51.480;11.962;2022-10-16T02:35:24;14.30;99.90
13336;DHT22;6737;51.480;11.962;2022-10-16T02:37:50;14.40;99.90
13336;DHT22;6737;51.480;11.962;2022-10-16T02:40:18;14.40;99.90
13336;DHT22;6737;51.480;11.962;2022-10-16T02:42:43;14.40;99.90
13336;DHT22;6737;51.480;11.962;2022-10-16T02:45:10;14.30;99.90
13336;DHT22;6737;51.480;11.962;2022-10-16T02:47:36;14.30;99.90
13336;DHT22;6737;51.480;11.962;2022-10-16T02:50:02;14.30;99.90
13336;DHT22;6737;51.480;11.962;2022-10-16T02:52:28;14.30;99.90
13336;DHT22;6737;51.480;11.962;2022-10-16T02:54:54;14.20;99.90
13336;DHT22;6737;51.480;11.962;2022-10-16T02:57:20;14.20;99.90
13336;DHT22;6737;51.480;11.962;2022-10-16T02:59:45;14.20;99.90
13336;DHT22;6737;51.480;11.962;2022-10-16T03:02:11;14.20;99.90
13336;DHT22;6737;51.480;11.962;2022-10-16T03:04:37;14.10;99.90
13336;DHT22;6737;51.480;11.962;2022-10-16T03:07:03;14.10;99.90
13336;DHT22;6737;51.480;11.962;2022-10-16T03:09:29;14.10;99.90
13336;DHT22;6737;51.480;11.962;2022-10-16T03:11:55;14.10;99.90
13336;DHT22;6737;51.480;11.962;2022-10-16T03:14:21;14.10;99.90
13336;DHT22;6737;51.480;11.962;2022-10-16T03:16:47;14.10;99.90
13336;DHT22;6737;51.480;11.962;2022-10-16T03:19:12;14.10;99.90
13336;DHT22;6737;51.480;11.962;2022-10-16T03:21:38;14.10;99.90
13336;DHT22;6737;51.480;11.962;2022-10-16T03:24:04;13.90;99.90
13336;DHT22;6737;51.480;11.962;2022-10-16T03:26:30;13.90;99.90
13336;DHT22;6737;51.480;11.962;2022-10-16T03:28:56;13.90;99.90
13336;DHT22;6737;51.480;11.962;2022-10-16T03:31:22;13.80;99.90
13336;DHT22;6737;51.480;11.962;2022-10-16T03:33:47;13.80;99.90
13336;DHT22;6737;51.480;11.962;2022-10-16T03:36:13;13.80;99.90
13336;DHT22;6737;51.480;11.962;2022-10-16T03:38:39;13.80;99.90
13336;DHT22;6737;51.480;11.962;2022-10-16T03:41:05;13.80;99.90
13336;DHT22;6737;51.480;11.962;2022-10-16T03:43:33;13.80;99.90
13336;DHT22;6737;51.480;11.962;2022-10-16T03:45:59;13.80;99.90
13336;DHT22;6737;51.480;11.962;2022-10-16T03:48:25;13.80;99.90
13336;DHT22;6737;51.480;11.962;2022-10-16T03:50:51;13.90;99.90
13336;DHT22;6737;51.480;11.962;2022-10-16T03:53:17;13.90;99.90
13336;DHT22;6737;51.480;11.962;2022-10-16T03:55:43;13.90;99.90
13336;DHT22;6737;51.480;11.962;2022-10-16T03:58:09;13.90;99.90
13336;DHT22;6737;51.480;11.962;2022-10-16T04:00:35;13.90;99.90
13336;DHT22;6737;51.480;11.962;2022-10-16T04:03:01;13.80;99.90
13336;DHT22;6737;51.480;11.962;2022-10-16T04:05:27;13.90;99.90
13336;DHT22;6737;51.480;11.962;2022-10-16T04:07:52;13.80;99.90
13336;DHT22;6737;51.480;11.962;2022-10-16T04:10:18;13.80;99.90
13336;DHT22;6737;51.480;11.962;2022-10-16T04:12:44;13.90;99.90
13336;DHT22;6737;51.480;11.962;2022-10-16T04:15:10;13.90;99.90
13336;DHT22;6737;51.480;11.962;2022-10-16T04:17:36;13.80;99.90
13336;DHT22;6737;51.480;11.962;2022-10-16T04:20:03;13.80;99.90
13336;DHT22;6737;51.480;11.962;2022-10-16T04:22:28;13.80;99.90
13336;DHT22;6737;51.480;11.962;2022-10-16T04:24:54;13.80;99.90
13336;DHT22;6737;51.480;11.962;2022-10-16T04:27:20;13.80;99.90
13336;DHT22;6737;51.480;11.962;2022-10-16T04:29:46;13.80;99.90
13336;DHT22;6737;51.480;11.962;2022-10-16T04:32:12;13.80;99.90
13336;DHT22;6737;51.480;11.962;2022-10-16T04:34:39;13.80;99.90
13336;DHT22;6737;51.480;11.962;2022-10-16T04:37:05;13.80;99.90
13336;DHT22;6737;51.480;11.962;2022-10-16T04:39:31;13.70;99.90
13336;DHT22;6737;51.480;11.962;2022-10-16T04:41:57;13.70;99.90
13336;DHT22;6737;51.480;11.962;2022-10-16T04:44:23;13.60;99.90
13336;DHT22;6737;51.480;11.962;2022-10-16T04:46:50;13.60;99.90
13336;DHT22;6737;51.480;11.962;2022-10-16T04:49:16;13.50;99.90
13336;DHT22;6737;51.480;11.962;2022-10-16T04:51:42;13.40;99.90
13336;DHT22;6737;51.480;11.962;2022-10-16T04:54:09;13.40;99.90
13336;DHT22;6737;51.480;11.962;2022-10-16T04:56:35;13.40;99.90
13336;DHT22;6737;51.480;11.962;2022-10-16T04:59:09;13.40;99.90
13336;DHT22;6737;51.480;11.962;2022-10-16T05:01:35;13.30;99.90
13336;DHT22;6737;51.480;11.962;2022-10-16T05:04:01;13.20;99.90
13336;DHT22;6737;51.480;11.962;2022-10-16T05:06:27;13.20;99.90
13336;DHT22;6737;51.480;11.962;2022-10-16T05:08:52;13.20;99.90
13336;DHT22;6737;51.480;11.962;2022-10-16T05:11:18;13.20;99.90
13336;DHT22;6737;51.480;11.962;2022-10-16T05:13:44;13.30;99.90
13336;DHT22;6737;51.480;11.962;2022-10-16T05:16:09;13.20;99.90
13336;DHT22;6737;51.480;11.962;2022-10-16T05:18:35;13.20;99.90
13336;DHT22;6737;51.480;11.962;2022-10-16T05:21:01;13.20;99.90
13336;DHT22;6737;51.480;11.962;2022-10-16T05:23:27;13.30;99.90
13336;DHT22;6737;51.480;11.962;2022-10-16T05:25:54;13.30;99.90
13336;DHT22;6737;51.480;11.962;2022-10-16T05:28:20;13.30;99.90
13336;DHT22;6737;51.480;11.962;2022-10-16T05:30:46;13.40;99.90
13336;DHT22;6737;51.480;11.962;2022-10-16T05:33:12;13.40;99.90
13336;DHT22;6737;51.480;11.962;2022-10-16T05:35:39;13.40;99.90
13336;DHT22;6737;51.480;11.962;2022-10-16T05:38:04;13.40;99.90
13336;DHT22;6737;51.480;11.962;2022-10-16T05:40:30;13.40;99.90
13336;DHT22;6737;51.480;11.962;2022-10-16T05:42:56;13.40;99.90
13336;DHT22;6737;51.480;11.962;2022-10-16T05:45:22;13.40;99.90
13336;DHT22;6737;51.480;11.962;2022-10-16T05:47:47;13.40;99.90
13336;DHT22;6737;51.480;11.962;2022-10-16T05:50:13;13.40;99.90
13336;DHT22;6737;51.480;11.962;2022-10-16T05:52:39;13.40;99.90
13336;DHT22;6737;51.480;11.962;2022-10-16T05:55:05;13.50;99.90
13336;DHT22;6737;51.480;11.962;2022-10-16T05:57:31;13.50;99.90
13336;DHT22;6737;51.480;11.962;2022-10-16T05:59:57;13.50;99.90
13336;DHT22;6737;51.480;11.962;2022-10-16T06:02:22;13.50;99.90
13336;DHT22;6737;51.480;11.962;2022-10-16T06:04:48;13.60;99.90
13336;DHT22;6737;51.480;11.962;2022-10-16T06:07:14;13.60;99.90
13336;DHT22;6737;51.480;11.962;2022-10-16T06:09:40;13.60;99.90
13336;DHT22;6737;51.480;11.962;2022-10-16T06:12:05;13.60;99.90
13336;DHT22;6737;51.480;11.962;2022-10-16T06:14:31;13.70;99.90
13336;DHT22;6737;51.480;11.962;2022-10-16T06:16:57;13.60;99.90
13336;DHT22;6737;51.480;11.962;2022-10-16T06:19:23;13.70;99.90
13336;DHT22;6737;51.480;11.962;2022-10-16T06:21:49;13.60;99.90
13336;DHT22;6737;51.480;11.962;2022-10-16T06:24:14;13.70;99.90
13336;DHT22;6737;51.480;11.962;2022-10-16T06:26:40;13.70;99.90
13336;DHT22;6737;51.480;11.962;2022-10-16T06:29:06;13.80;99.90
13336;DHT22;6737;51.480;11.962;2022-10-16T06:31:32;13.80;99.90
13336;DHT22;6737;51.480;11.962;2022-10-16T06:33:59;13.80;99.90
13336;DHT22;6737;51.480;11.962;2022-10-16T06:36:25;13.90;99.90
13336;DHT22;6737;51.480;11.962;2022-10-16T06:38:51;13.90;99.90
13336;DHT22;6737;51.480;11.962;2022-10-16T06:41:20;13.90;99.90
13336;DHT22;6737;51.480;11.962;2022-10-16T06:43:47;13.90;99.90
13336;DHT22;6737;51.480;11.962;2022-10-16T06:46:16;13.90;99.90
13336;DHT22;6737;51.480;11.962;2022-10-16T06:48:42;14.00;99.90
13336;DHT22;6737;51.480;11.962;2022-10-16T06:51:10;14.00;99.90
13336;DHT22;6737;51.480;11.962;2022-10-16T06:53:39;14.00;99.90
13336;DHT22;6737;51.480;11.962;2022-10-16T06:56:10;14.00;99.90
13336;DHT22;6737;51.480;11.962;2022-10-16T06:58:37;14.10;99.90
13336;DHT22;6737;51.480;11.962;2022-10-16T07:01:03;14.10;99.90
13336;DHT22;6737;51.480;11.962;2022-10-16T07:03:30;14.20;99.90
13336;DHT22;6737;51.480;11.962;2022-10-16T07:05:56;14.30;99.90
13336;DHT22;6737;51.480;11.962;2022-10-16T07:08:22;14.30;99.90
13336;DHT22;6737;51.480;11.962;2022-10-16T07:10:47;14.50;99.90
13336;DHT22;6737;51.480;11.962;2022-10-16T07:13:13;14.50;99.90
13336;DHT22;6737;51.480;11.962;2022-10-16T07:15:40;14.60;99.90
13336;DHT22;6737;51.480;11.962;2022-10-16T07:18:07;14.70;99.90
13336;DHT22;6737;51.480;11.962;2022-10-16T07:20:32;14.80;99.90
13336;DHT22;6737;51.480;11.962;2022-10-16T07:22:58;14.90;99.90
13336;DHT22;6737;51.480;11.962;2022-10-16T07:25:24;14.90;99.90
13336;DHT22;6737;51.480;11.962;2022-10-16T07:27:50;14.90;99.90
13336;DHT22;6737;51.480;11.962;2022-10-16T07:30:16;14.90;99.90
13336;DHT22;6737;51.480;11.962;2022-10-16T07:32:41;15.00;99.90
13336;DHT22;6737;51.480;11.962;2022-10-16T07:35:07;15.00;99.90
13336;DHT22;6737;51.480;11.962;2022-10-16T07:37:33;15.00;99.90
13336;DHT22;6737;51.480;11.962;2022-10-16T07:39:59;15.10;99.90
13336;DHT22;6737;51.480;11.962;2022-10-16T07:42:25;15.10;99.90
13336;DHT22;6737;51.480;11.962;2022-10-16T07:44:50;15.20;99.90
13336;DHT22;6737;51.480;11.962;2022-10-16T07:47:16;15.20;99.90
13336;DHT22;6737;51.480;11.962;2022-10-16T07:49:42;15.20;99.90
13336;DHT22;6737;51.480;11.962;2022-10-16T07:52:08;15.20;99.90
13336;DHT22;6737;51.480;11.962;2022-10-16T07:54:33;15.30;99.90
13336;DHT22;6737;51.480;11.962;2022-10-16T07:56:59;15.30;99.90
13336;DHT22;6737;51.480;11.962;2022-10-16T07:59:25;15.40;99.90
13336;DHT22;6737;51.480;11.962;2022-10-16T08:01:51;15.40;99.90
13336;DHT22;6737;51.480;11.962;2022-10-16T08:04:16;15.50;99.90
13336;DHT22;6737;51.480;11.962;2022-10-16T08:06:42;15.50;99.90
13336;DHT22;6737;51.480;11.962;2022-10-16T08:09:09;15.60;99.90
13336;DHT22;6737;51.480;11.962;2022-10-16T08:11:35;15.50;99.90
13336;DHT22;6737;51.480;11.962;2022-10-16T08:14:01;15.60;99.90
13336;DHT22;6737;51.480;11.962;2022-10-16T08:16:26;15.60;99.90
13336;DHT22;6737;51.480;11.962;2022-10-16T08:18:52;15.70;99.90
13336;DHT22;6737;51.480;11.962;2022-10-16T08:21:22;15.80;99.90
13336;DHT22;6737;51.480;11.962;2022-10-16T08:23:52;15.90;99.90
13336;DHT22;6737;51.480;11.962;2022-10-16T08:26:18;16.00;99.90
13336;DHT22;6737;51.480;11.962;2022-10-16T08:28:44;16.10;99.90
13336;DHT22;6737;51.480;11.962;2022-10-16T08:31:14;16.20;99.90
13336;DHT22;6737;51.480;11.962;2022-10-16T08:33:42;16.20;99.90
13336;DHT22;6737;51.480;11.962;2022-10-16T08:36:10;16.20;99.90
13336;DHT22;6737;51.480;11.962;2022-10-16T08:38:37;16.20;99.90
13336;DHT22;6737;51.480;11.962;2022-10-16T08:49:18;16.30;99.90
13336;DHT22;6737;51.480;11.962;2022-10-16T08:51:44;16.30;99.90
13336;DHT22;6737;51.480;11.962;2022-10-16T08:54:44;16.30;99.90
13336;DHT22;6737;51.480;11.962;2022-10-16T08:57:20;16.40;99.90
13336;DHT22;6737;51.480;11.962;2022-10-16T08:59:46;16.40;99.90
13336;DHT22;6737;51.480;11.962;2022-10-16T09:02:35;16.40;99.90
13336;DHT22;6737;51.480;11.962;2022-10-16T09:05:44;16.50;99.90
13336;DHT22;6737;51.480;11.962;2022-10-16T09:08:58;16.50;99.90
13336;DHT22;6737;51.480;11.962;2022-10-16T09:23:00;16.90;99.90
13336;DHT22;6737;51.480;11.962;2022-10-16T09:25:34;17.00;99.90
13336;DHT22;6737;51.480;11.962;2022-10-16T09:28:00;17.00;99.90
13336;DHT22;6737;51.480;11.962;2022-10-16T09:30:28;17.10;99.90
13336;DHT22;6737;51.480;11.962;2022-10-16T09:32:57;17.10;99.90
13336;DHT22;6737;51.480;11.962;2022-10-16T09:35:38;17.20;99.90
13336;DHT22;6737;51.480;11.962;2022-10-16T09:38:06;17.20;99.90
13336;DHT22;6737;51.480;11.962;2022-10-16T09:40:36;17.20;99.90
13336;DHT22;6737;51.480;11.962;2022-10-16T09:43:30;17.20;99.90
13336;DHT22;6737;51.480;11.962;2022-10-16T09:48:32;17.10;99.90
13336;DHT22;6737;51.480;11.962;2022-10-16T09:51:02;17.10;99.90
13336;DHT22;6737;51.480;11.962;2022-10-16T09:53:46;17.20;99.90
13336;DHT22;6737;51.480;11.962;2022-10-16T09:56:22;17.20;99.90
13336;DHT22;6737;51.480;11.962;2022-10-16T09:58:57;17.40;99.90
13336;DHT22;6737;51.480;11.962;2022-10-16T10:01:31;17.40;99.90
13336;DHT22;6737;51.480;11.962;2022-10-16T10:03:58;17.50;99.90
13336;DHT22;6737;51.480;11.962;2022-10-16T10:06:37;17.50;99.90
13336;DHT22;6737;51.480;11.962;2022-10-16T10:09:27;17.50;99.90
13336;DHT22;6737;51.480;11.962;2022-10-16T10:12:00;17.60;99.90
13336;DHT22;6737;51.480;11.962;2022-10-16T10:17:15;17.70;99.90
13336;DHT22;6737;51.480;11.962;2022-10-16T10:19:59;17.70;99.90
13336;DHT22;6737;51.480;11.962;2022-10-16T10:24:56;17.90;99.90
13336;DHT22;6737;51.480;11.962;2022-10-16T10:27:28;17.90;99.90
13336;DHT22;6737;51.480;11.962;2022-10-16T10:30:08;18.00;99.90
13336;DHT22;6737;51.480;11.962;2022-10-16T10:35:44;18.20;99.90
13336;DHT22;6737;51.480;11.962;2022-10-16T10:38:25;18.30;99.90
13336;DHT22;6737;51.480;11.962;2022-10-16T10:47:45;18.10;99.90
13336;DHT22;6737;51.480;11.962;2022-10-16T10:50:28;18.10;99.90
13336;DHT22;6737;51.480;11.962;2022-10-16T10:55:50;18.10;99.90
13336;DHT22;6737;51.480;11.962;2022-10-16T11:01:15;18.10;99.90
13336;DHT22;6737;51.480;11.962;2022-10-16T11:07:00;18.10;99.90
13336;DHT22;6737;51.480;11.962;2022-10-16T11:09:41;18.10;99.90
13336;DHT22;6737;51.480;11.962;2022-10-16T11:12:19;18.20;99.90
13336;DHT22;6737;51.480;11.962;2022-10-16T11:17:35;18.30;99.90
13336;DHT22;6737;51.480;11.962;2022-10-16T11:30:38;18.30;99.90
13336;DHT22;6737;51.480;11.962;2022-10-16T11:35:55;18.20;99.90
13336;DHT22;6737;51.480;11.962;2022-10-16T11:38:34;18.30;99.90
13336;DHT22;6737;51.480;11.962;2022-10-16T11:41:18;18.40;99.90
13336;DHT22;6737;51.480;11.962;2022-10-16T11:45:00;18.30;99.90
13336;DHT22;6737;51.480;11.962;2022-10-16T11:49:30;18.20;99.90
13336;DHT22;6737;51.480;11.962;2022-10-16T11:51:59;18.10;99.90
13336;DHT22;6737;51.480;11.962;2022-10-16T11:57:24;18.20;99.90
13336;DHT22;6737;51.480;11.962;2022-10-16T12:10:29;19.00;99.90
13336;DHT22;6737;51.480;11.962;2022-10-16T12:12:57;19.00;99.90
13336;DHT22;6737;51.480;11.962;2022-10-16T12:15:29;19.00;99.90
13336;DHT22;6737;51.480;11.962;2022-10-16T12:17:56;19.00;99.90
13336;DHT22;6737;51.480;11.962;2022-10-16T12:22:56;18.90;99.90
13336;DHT22;6737;51.480;11.962;2022-10-16T12:25:39;18.80;99.90
13336;DHT22;6737;51.480;11.962;2022-10-16T12:28:20;18.90;99.90
13336;DHT22;6737;51.480;11.962;2022-10-16T12:33:29;18.90;99.90
13336;DHT22;6737;51.480;11.962;2022-10-16T12:36:00;18.80;99.90
13336;DHT22;6737;51.480;11.962;2022-10-16T12:38:49;18.80;99.90
13336;DHT22;6737;51.480;11.962;2022-10-16T12:41:35;18.70;99.90
13336;DHT22;6737;51.480;11.962;2022-10-16T12:44:24;18.60;99.90
13336;DHT22;6737;51.480;11.962;2022-10-16T12:46:52;18.60;99.90
13336;DHT22;6737;51.480;11.962;2022-10-16T12:49:35;18.70;99.90
13336;DHT22;6737;51.480;11.962;2022-10-16T12:52:03;18.80;99.90
13336;DHT22;6737;51.480;11.962;2022-10-16T12:54:31;18.80;99.90
13336;DHT22;6737;51.480;11.962;2022-10-16T12:57:13;18.80;99.90
13336;DHT22;6737;51.480;11.962;2022-10-16T12:59:59;18.80;99.90
13336;DHT22;6737;51.480;11.962;2022-10-16T13:08:12;18.90;99.90
13336;DHT22;6737;51.480;11.962;2022-10-16T13:10:40;18.90;99.90
13336;DHT22;6737;51.480;11.962;2022-10-16T13:13:18;18.90;99.90
13336;DHT22;6737;51.480;11.962;2022-10-16T13:18:25;18.80;99.90
13336;DHT22;6737;51.480;11.962;2022-10-16T13:21:18;18.80;99.90
13336;DHT22;6737;51.480;11.962;2022-10-16T13:29:07;18.60;99.90
13336;DHT22;6737;51.480;11.962;2022-10-16T13:31:33;18.50;99.90
13336;DHT22;6737;51.480;11.962;2022-10-16T13:34:00;18.30;99.90
13336;DHT22;6737;51.480;11.962;2022-10-16T13:36:49;18.30;99.90
13336;DHT22;6737;51.480;11.962;2022-10-16T13:39:29;18.20;99.90
13336;DHT22;6737;51.480;11.962;2022-10-16T13:42:07;18.10;99.90
13336;DHT22;6737;51.480;11.962;2022-10-16T13:44:43;18.00;99.90
13336;DHT22;6737;51.480;11.962;2022-10-16T13:47:17;18.00;99.90
13336;DHT22;6737;51.480;11.962;2022-10-16T13:49:43;18.00;99.90
13336;DHT22;6737;51.480;11.962;2022-10-16T13:52:19;18.00;99.90
13336;DHT22;6737;51.480;11.962;2022-10-16T13:54:45;18.00;99.90
13336;DHT22;6737;51.480;11.962;2022-10-16T13:57:15;17.90;99.90
13336;DHT22;6737;51.480;11.962;2022-10-16T13:59:42;18.00;99.90
13336;DHT22;6737;51.480;11.962;2022-10-16T14:04:55;18.00;99.90
13336;DHT22;6737;51.480;11.962;2022-10-16T14:07:25;18.00;99.90
13336;DHT22;6737;51.480;11.962;2022-10-16T14:09:53;18.00;99.90
13336;DHT22;6737;51.480;11.962;2022-10-16T14:12:19;18.00;99.90
13336;DHT22;6737;51.480;11.962;2022-10-16T14:14:48;18.00;99.90
13336;DHT22;6737;51.480;11.962;2022-10-16T14:19:48;18.00;99.90
13336;DHT22;6737;51.480;11.962;2022-10-16T14:22:36;18.00;99.90
13336;DHT22;6737;51.480;11.962;2022-10-16T14:25:29;18.00;99.90
13336;DHT22;6737;51.480;11.962;2022-10-16T14:28:13;17.90;99.90
13336;DHT22;6737;51.480;11.962;2022-10-16T14:30:51;17.90;99.90
13336;DHT22;6737;51.480;11.962;2022-10-16T14:38:34;17.90;99.90
13336;DHT22;6737;51.480;11.962;2022-10-16T14:41:00;17.80;99.90
13336;DHT22;6737;51.480;11.962;2022-10-16T14:43:41;17.80;99.90
13336;DHT22;6737;51.480;11.962;2022-10-16T14:46:19;17.80;99.90
13336;DHT22;6737;51.480;11.962;2022-10-16T14:48:51;17.80;99.90
13336;DHT22;6737;51.480;11.962;2022-10-16T14:51:19;17.70;99.90
13336;DHT22;6737;51.480;11.962;2022-10-16T14:53:45;17.70;99.90
13336;DHT22;6737;51.480;11.962;2022-10-16T14:56:23;17.70;99.90
13336;DHT22;6737;51.480;11.962;2022-10-16T14:58:50;17.70;99.90
13336;DHT22;6737;51.480;11.962;2022-10-16T15:01:17;17.70;99.90
13336;DHT22;6737;51.480;11.962;2022-10-16T15:03:43;17.70;99.90
13336;DHT22;6737;51.480;11.962;2022-10-16T15:06:11;17.70;99.90
13336;DHT22;6737;51.480;11.962;2022-10-16T15:08:38;17.70;99.90
13336;DHT22;6737;51.480;11.962;2022-10-16T15:11:04;17.70;99.90
13336;DHT22;6737;51.480;11.962;2022-10-16T15:13:29;17.70;99.90
13336;DHT22;6737;51.480;11.962;2022-10-16T15:15:55;17.70;99.90
13336;DHT22;6737;51.480;11.962;2022-10-16T15:18:21;17.70;99.90
13336;DHT22;6737;51.480;11.962;2022-10-16T15:20:49;17.70;99.90
13336;DHT22;6737;51.480;11.962;2022-10-16T15:23:18;17.60;99.90
13336;DHT22;6737;51.480;11.962;2022-10-16T15:25:49;17.60;99.90
13336;DHT22;6737;51.480;11.962;2022-10-16T15:28:16;17.60;99.90
13336;DHT22;6737;51.480;11.962;2022-10-16T15:30:43;17.60;99.90
13336;DHT22;6737;51.480;11.962;2022-10-16T15:33:16;17.50;99.90
13336;DHT22;6737;51.480;11.962;2022-10-16T15:35:46;17.50;99.90
13336;DHT22;6737;51.480;11.962;2022-10-16T15:38:14;17.50;99.90
13336;DHT22;6737;51.480;11.962;2022-10-16T15:40:41;17.50;99.90
13336;DHT22;6737;51.480;11.962;2022-10-16T15:43:07;17.50;99.90
13336;DHT22;6737;51.480;11.962;2022-10-16T15:45:34;17.40;99.90
13336;DHT22;6737;51.480;11.962;2022-10-16T15:48:00;17.40;99.90
13336;DHT22;6737;51.480;11.962;2022-10-16T15:50:26;17.40;99.90
13336;DHT22;6737;51.480;11.962;2022-10-16T15:52:52;17.40;99.90
13336;DHT22;6737;51.480;11.962;2022-10-16T15:55:18;17.40;99.90
13336;DHT22;6737;51.480;11.962;2022-10-16T15:57:45;17.40;99.90
13336;DHT22;6737;51.480;11.962;2022-10-16T16:00:16;17.40;99.90
13336;DHT22;6737;51.480;11.962;2022-10-16T16:02:44;17.40;99.90
13336;DHT22;6737;51.480;11.962;2022-10-16T16:05:15;17.40;99.90
13336;DHT22;6737;51.480;11.962;2022-10-16T16:07:41;17.40;99.90
13336;DHT22;6737;51.480;11.962;2022-10-16T16:10:09;17.40;99.90
13336;DHT22;6737;51.480;11.962;2022-10-16T16:12:35;17.40;99.90
13336;DHT22;6737;51.480;11.962;2022-10-16T16:15:07;17.30;99.90
13336;DHT22;6737;51.480;11.962;2022-10-16T16:17:34;17.30;99.90
13336;DHT22;6737;51.480;11.962;2022-10-16T16:20:00;17.30;99.90
13336;DHT22;6737;51.480;11.962;2022-10-16T16:22:27;17.20;99.90
13336;DHT22;6737;51.480;11.962;2022-10-16T16:24:53;17.20;99.90
13336;DHT22;6737;51.480;11.962;2022-10-16T16:27:19;17.10;99.90
13336;DHT22;6737;51.480;11.962;2022-10-16T16:29:46;17.10;99.90
13336;DHT22;6737;51.480;11.962;2022-10-16T16:32:12;17.00;99.90
13336;DHT22;6737;51.480;11.962;2022-10-16T16:34:38;17.00;99.90
13336;DHT22;6737;51.480;11.962;2022-10-16T16:37:04;17.00;99.90
13336;DHT22;6737;51.480;11.962;2022-10-16T16:39:30;17.00;99.90
13336;DHT22;6737;51.480;11.962;2022-10-16T16:41:57;17.00;99.90
13336;DHT22;6737;51.480;11.962;2022-10-16T16:44:28;16.90;99.90
13336;DHT22;6737;51.480;11.962;2022-10-16T16:46:54;16.90;99.90
13336;DHT22;6737;51.480;11.962;2022-10-16T16:49:20;16.90;99.90
13336;DHT22;6737;51.480;11.962;2022-10-16T16:51:46;16.90;99.90
13336;DHT22;6737;51.480;11.962;2022-10-16T16:54:12;16.90;99.90
13336;DHT22;6737;51.480;11.962;2022-10-16T16:56:39;16.80;99.90
13336;DHT22;6737;51.480;11.962;2022-10-16T16:59:21;16.80;99.90
13336;DHT22;6737;51.480;11.962;2022-10-16T17:01:48;16.80;99.90
13336;DHT22;6737;51.480;11.962;2022-10-16T17:04:13;16.70;99.90
13336;DHT22;6737;51.480;11.962;2022-10-16T17:06:41;16.70;99.90
13336;DHT22;6737;51.480;11.962;2022-10-16T17:09:07;16.70;99.90
13336;DHT22;6737;51.480;11.962;2022-10-16T17:11:35;16.60;99.90
13336;DHT22;6737;51.480;11.962;2022-10-16T17:14:01;16.60;99.90
13336;DHT22;6737;51.480;11.962;2022-10-16T17:16:31;16.60;99.90
13336;DHT22;6737;51.480;11.962;2022-10-16T17:19:05;16.60;99.90
13336;DHT22;6737;51.480;11.962;2022-10-16T17:21:32;16.50;99.90
13336;DHT22;6737;51.480;11.962;2022-10-16T17:23:59;16.40;99.90
13336;DHT22;6737;51.480;11.962;2022-10-16T17:26:26;16.40;99.90
13336;DHT22;6737;51.480;11.962;2022-10-16T17:28:54;16.40;99.90
13336;DHT22;6737;51.480;11.962;2022-10-16T17:31:29;16.30;99.90
13336;DHT22;6737;51.480;11.962;2022-10-16T17:33:56;16.30;99.90
13336;DHT22;6737;51.480;11.962;2022-10-16T17:36:22;16.30;99.90
13336;DHT22;6737;51.480;11.962;2022-10-16T17:38:49;16.30;99.90
13336;DHT22;6737;51.480;11.962;2022-10-16T17:41:16;16.30;99.90
13336;DHT22;6737;51.480;11.962;2022-10-16T17:43:43;16.20;99.90
13336;DHT22;6737;51.480;11.962;2022-10-16T17:46:09;16.20;99.90
13336;DHT22;6737;51.480;11.962;2022-10-16T17:48:43;16.20;99.90
13336;DHT22;6737;51.480;11.962;2022-10-16T17:51:12;16.20;99.90
13336;DHT22;6737;51.480;11.962;2022-10-16T17:53:39;16.10;99.90
13336;DHT22;6737;51.480;11.962;2022-10-16T17:56:10;16.00;99.90